sensor_id;sensor_type;location;lat;lon;timestamp;P1;durP1;ratioP1;P2;durP2;ratioP2
69854;SDS011;57146;48.140;16.304;2023-05-10T00:02:07;3.60;;;0.40;;
69854;SDS011;57146;48.140;16.304;2023-05-10T00:04:34;3.00;;;0.50;;
69854;SDS011;57146;48.140;16.304;2023-05-10T00:07:01;2.88;;;0.20;;
69854;SDS011;57146;48.140;16.304;2023-05-10T00:09:28;3.05;;;0.32;;
69854;SDS011;57146;48.140;16.304;2023-05-10T00:11:55;2.33;;;0.20;;
69854;SDS011;57146;48.140;16.304;2023-05-10T00:14:22;3.13;;;0.40;;
69854;SDS011;57146;48.140;16.304;2023-05-10T00:16:49;2.67;;;0.20;;
69854;SDS011;57146;48.140;16.304;2023-05-10T00:19:15;2.50;;;0.43;;
69854;SDS011;57146;48.140;16.304;2023-05-10T00:21:42;2.65;;;0.30;;
69854;SDS011;57146;48.140;16.304;2023-05-10T00:24:09;2.67;;;0.30;;
69854;SDS011;57146;48.140;16.304;2023-05-10T00:26:36;3.67;;;0.40;;
69854;SDS011;57146;48.140;16.304;2023-05-10T00:29:03;2.63;;;0.30;;
69854;SDS011;57146;48.140;16.304;2023-05-10T00:31:30;2.83;;;0.32;;
69854;SDS011;57146;48.140;16.304;2023-05-10T00:33:56;2.97;;;0.40;;
69854;SDS011;57146;48.140;16.304;2023-05-10T00:36:23;2.47;;;0.32;;
69854;SDS011;57146;48.140;16.304;2023-05-10T00:38:50;2.53;;;0.20;;
69854;SDS011;57146;48.140;16.304;2023-05-10T00:41:17;4.77;;;0.30;;
69854;SDS011;57146;48.140;16.304;2023-05-10T00:43:45;3.08;;;0.30;;
69854;SDS011;57146;48.140;16.304;2023-05-10T00:46:13;3.08;;;0.30;;
69854;SDS011;57146;48.140;16.304;2023-05-10T00:48:42;3.55;;;0.40;;
69854;SDS011;57146;48.140;16.304;2023-05-10T00:51:10;2.40;;;0.28;;
69854;SDS011;57146;48.140;16.304;2023-05-10T00:53:37;2.40;;;0.13;;
69854;SDS011;57146;48.140;16.304;2023-05-10T00:56:04;2.42;;;0.30;;
69854;SDS011;57146;48.140;16.304;2023-05-10T00:58:31;3.10;;;0.30;;
69854;SDS011;57146;48.140;16.304;2023-05-10T01:00:58;3.08;;;0.30;;
69854;SDS011;57146;48.140;16.304;2023-05-10T01:03:25;2.45;;;0.25;;
69854;SDS011;57146;48.140;16.304;2023-05-10T01:05:52;2.50;;;0.20;;
69854;SDS011;57146;48.140;16.304;2023-05-10T01:08:19;2.60;;;0.30;;
69854;SDS011;57146;48.140;16.304;2023-05-10T01:10:47;2.67;;;0.47;;
69854;SDS011;57146;48.140;16.304;2023-05-10T01:13:16;3.03;;;0.40;;
69854;SDS011;57146;48.140;16.304;2023-05-10T01:15:51;2.90;;;0.40;;
69854;SDS011;57146;48.140;16.304;2023-05-10T01:18:18;2.97;;;0.27;;
69854;SDS011;57146;48.140;16.304;2023-05-10T01:20:48;3.47;;;0.50;;
69854;SDS011;57146;48.140;16.304;2023-05-10T01:23:30;3.17;;;0.30;;
69854;SDS011;57146;48.140;16.304;2023-05-10T01:28:45;3.22;;;0.38;;
69854;SDS011;57146;48.140;16.304;2023-05-10T01:34:47;3.05;;;0.20;;
69854;SDS011;57146;48.140;16.304;2023-05-10T01:37:20;2.63;;;0.30;;
69854;SDS011;57146;48.140;16.304;2023-05-10T01:40:01;2.85;;;0.40;;
69854;SDS011;57146;48.140;16.304;2023-05-10T01:42:40;3.50;;;0.50;;
69854;SDS011;57146;48.140;16.304;2023-05-10T01:48:10;3.20;;;0.50;;
69854;SDS011;57146;48.140;16.304;2023-05-10T01:50:39;3.38;;;0.45;;
69854;SDS011;57146;48.140;16.304;2023-05-10T01:53:10;3.28;;;0.40;;
69854;SDS011;57146;48.140;16.304;2023-05-10T01:55:41;2.50;;;0.38;;
69854;SDS011;57146;48.140;16.304;2023-05-10T01:58:32;4.90;;;0.60;;
69854;SDS011;57146;48.140;16.304;2023-05-10T02:01:01;3.63;;;0.40;;
69854;SDS011;57146;48.140;16.304;2023-05-10T02:03:30;2.95;;;0.40;;
69854;SDS011;57146;48.140;16.304;2023-05-10T02:06:02;2.80;;;0.60;;
69854;SDS011;57146;48.140;16.304;2023-05-10T02:08:31;3.20;;;0.30;;
69854;SDS011;57146;48.140;16.304;2023-05-10T02:11:02;3.43;;;0.50;;
69854;SDS011;57146;48.140;16.304;2023-05-10T02:13:31;3.22;;;0.47;;
69854;SDS011;57146;48.140;16.304;2023-05-10T02:16:02;3.78;;;0.60;;
69854;SDS011;57146;48.140;16.304;2023-05-10T02:18:31;2.92;;;0.40;;
69854;SDS011;57146;48.140;16.304;2023-05-10T02:21:01;2.83;;;0.60;;
69854;SDS011;57146;48.140;16.304;2023-05-10T02:23:29;3.80;;;0.60;;
69854;SDS011;57146;48.140;16.304;2023-05-10T02:25:57;2.97;;;0.45;;
69854;SDS011;57146;48.140;16.304;2023-05-10T02:28:26;2.55;;;0.43;;
69854;SDS011;57146;48.140;16.304;2023-05-10T02:30:55;3.10;;;0.45;;
69854;SDS011;57146;48.140;16.304;2023-05-10T02:33:23;3.63;;;0.70;;
69854;SDS011;57146;48.140;16.304;2023-05-10T02:35:51;3.53;;;0.50;;
69854;SDS011;57146;48.140;16.304;2023-05-10T02:38:19;3.63;;;0.50;;
69854;SDS011;57146;48.140;16.304;2023-05-10T02:40:49;2.65;;;0.30;;
69854;SDS011;57146;48.140;16.304;2023-05-10T02:43:17;3.60;;;0.65;;
69854;SDS011;57146;48.140;16.304;2023-05-10T02:45:46;3.83;;;0.50;;
69854;SDS011;57146;48.140;16.304;2023-05-10T02:48:13;4.23;;;0.40;;
69854;SDS011;57146;48.140;16.304;2023-05-10T02:50:42;2.97;;;0.45;;
69854;SDS011;57146;48.140;16.304;2023-05-10T02:53:13;3.13;;;0.55;;
69854;SDS011;57146;48.140;16.304;2023-05-10T02:55:45;3.72;;;0.50;;
69854;SDS011;57146;48.140;16.304;2023-05-10T02:58:17;3.97;;;0.60;;
69854;SDS011;57146;48.140;16.304;2023-05-10T03:00:44;3.00;;;0.43;;
69854;SDS011;57146;48.140;16.304;2023-05-10T03:03:10;3.58;;;0.50;;
69854;SDS011;57146;48.140;16.304;2023-05-10T03:05:37;3.78;;;0.60;;
69854;SDS011;57146;48.140;16.304;2023-05-10T03:08:05;3.50;;;0.50;;
69854;SDS011;57146;48.140;16.304;2023-05-10T03:10:33;4.25;;;0.50;;
69854;SDS011;57146;48.140;16.304;2023-05-10T03:13:16;2.73;;;0.47;;
69854;SDS011;57146;48.140;16.304;2023-05-10T03:16:03;4.40;;;0.60;;
69854;SDS011;57146;48.140;16.304;2023-05-10T03:18:45;4.22;;;0.60;;
69854;SDS011;57146;48.140;16.304;2023-05-10T03:21:17;3.00;;;0.40;;
69854;SDS011;57146;48.140;16.304;2023-05-10T03:23:50;3.60;;;0.55;;
69854;SDS011;57146;48.140;16.304;2023-05-10T03:26:20;2.63;;;0.40;;
69854;SDS011;57146;48.140;16.304;2023-05-10T03:28:57;3.55;;;1.00;;
69854;SDS011;57146;48.140;16.304;2023-05-10T03:31:25;3.17;;;0.52;;
69854;SDS011;57146;48.140;16.304;2023-05-10T03:33:52;3.50;;;0.60;;
69854;SDS011;57146;48.140;16.304;2023-05-10T03:36:23;3.05;;;0.47;;
69854;SDS011;57146;48.140;16.304;2023-05-10T03:38:51;4.73;;;0.50;;
69854;SDS011;57146;48.140;16.304;2023-05-10T03:41:18;3.25;;;0.40;;
69854;SDS011;57146;48.140;16.304;2023-05-10T03:43:46;3.28;;;0.57;;
69854;SDS011;57146;48.140;16.304;2023-05-10T03:46:13;3.40;;;0.50;;
69854;SDS011;57146;48.140;16.304;2023-05-10T03:48:41;3.90;;;0.75;;
69854;SDS011;57146;48.140;16.304;2023-05-10T03:51:08;2.70;;;0.33;;
69854;SDS011;57146;48.140;16.304;2023-05-10T03:53:35;3.22;;;0.50;;
69854;SDS011;57146;48.140;16.304;2023-05-10T03:56:02;4.70;;;0.80;;
69854;SDS011;57146;48.140;16.304;2023-05-10T03:58:29;5.32;;;0.57;;
69854;SDS011;57146;48.140;16.304;2023-05-10T04:00:57;4.28;;;0.63;;
69854;SDS011;57146;48.140;16.304;2023-05-10T04:03:24;6.67;;;1.20;;
69854;SDS011;57146;48.140;16.304;2023-05-10T04:05:58;4.10;;;0.30;;
69854;SDS011;57146;48.140;16.304;2023-05-10T04:08:28;4.53;;;0.60;;
69854;SDS011;57146;48.140;16.304;2023-05-10T04:11:08;3.78;;;0.50;;
69854;SDS011;57146;48.140;16.304;2023-05-10T04:13:36;3.28;;;0.60;;
69854;SDS011;57146;48.140;16.304;2023-05-10T04:16:03;4.27;;;0.57;;
69854;SDS011;57146;48.140;16.304;2023-05-10T04:18:31;4.43;;;0.60;;
69854;SDS011;57146;48.140;16.304;2023-05-10T04:20:58;4.13;;;0.60;;
69854;SDS011;57146;48.140;16.304;2023-05-10T04:23:25;4.45;;;0.70;;
69854;SDS011;57146;48.140;16.304;2023-05-10T04:25:51;3.63;;;0.77;;
69854;SDS011;57146;48.140;16.304;2023-05-10T04:28:18;3.97;;;0.70;;
69854;SDS011;57146;48.140;16.304;2023-05-10T04:30:45;4.30;;;0.85;;
69854;SDS011;57146;48.140;16.304;2023-05-10T04:33:12;4.05;;;0.80;;
69854;SDS011;57146;48.140;16.304;2023-05-10T04:35:39;4.22;;;0.82;;
69854;SDS011;57146;48.140;16.304;2023-05-10T04:38:06;3.60;;;0.73;;
69854;SDS011;57146;48.140;16.304;2023-05-10T04:40:32;4.47;;;1.20;;
69854;SDS011;57146;48.140;16.304;2023-05-10T04:42:59;3.85;;;0.60;;
69854;SDS011;57146;48.140;16.304;2023-05-10T04:45:26;4.13;;;1.00;;
69854;SDS011;57146;48.140;16.304;2023-05-10T04:47:53;3.10;;;0.60;;
69854;SDS011;57146;48.140;16.304;2023-05-10T04:50:20;3.65;;;0.65;;
69854;SDS011;57146;48.140;16.304;2023-05-10T04:52:47;5.20;;;0.80;;
69854;SDS011;57146;48.140;16.304;2023-05-10T04:55:14;3.92;;;0.70;;
69854;SDS011;57146;48.140;16.304;2023-05-10T04:57:41;3.75;;;0.60;;
69854;SDS011;57146;48.140;16.304;2023-05-10T05:00:08;4.55;;;0.70;;
69854;SDS011;57146;48.140;16.304;2023-05-10T05:02:35;3.22;;;0.65;;
69854;SDS011;57146;48.140;16.304;2023-05-10T05:05:02;5.13;;;0.80;;
69854;SDS011;57146;48.140;16.304;2023-05-10T05:07:29;3.63;;;0.65;;
69854;SDS011;57146;48.140;16.304;2023-05-10T05:09:56;5.35;;;1.05;;
69854;SDS011;57146;48.140;16.304;2023-05-10T05:12:23;2.78;;;0.40;;
69854;SDS011;57146;48.140;16.304;2023-05-10T05:14:49;4.25;;;0.65;;
69854;SDS011;57146;48.140;16.304;2023-05-10T05:17:16;12.63;;;1.40;;
69854;SDS011;57146;48.140;16.304;2023-05-10T05:19:43;13.55;;;1.70;;
69854;SDS011;57146;48.140;16.304;2023-05-10T05:22:10;7.30;;;0.90;;
69854;SDS011;57146;48.140;16.304;2023-05-10T05:24:37;7.20;;;0.82;;
69854;SDS011;57146;48.140;16.304;2023-05-10T05:27:04;20.35;;;1.83;;
69854;SDS011;57146;48.140;16.304;2023-05-10T05:29:31;8.73;;;0.90;;
69854;SDS011;57146;48.140;16.304;2023-05-10T05:31:58;13.43;;;2.28;;
69854;SDS011;57146;48.140;16.304;2023-05-10T05:34:25;7.63;;;0.80;;
69854;SDS011;57146;48.140;16.304;2023-05-10T05:36:52;4.45;;;0.80;;
69854;SDS011;57146;48.140;16.304;2023-05-10T05:39:19;6.97;;;1.13;;
69854;SDS011;57146;48.140;16.304;2023-05-10T05:41:46;7.83;;;1.17;;
69854;SDS011;57146;48.140;16.304;2023-05-10T05:44:13;3.67;;;0.63;;
69854;SDS011;57146;48.140;16.304;2023-05-10T05:46:40;3.55;;;0.80;;
69854;SDS011;57146;48.140;16.304;2023-05-10T05:49:06;5.60;;;1.10;;
69854;SDS011;57146;48.140;16.304;2023-05-10T05:51:33;9.20;;;1.60;;
69854;SDS011;57146;48.140;16.304;2023-05-10T05:54:00;4.17;;;1.03;;
69854;SDS011;57146;48.140;16.304;2023-05-10T05:56:28;4.75;;;1.02;;
69854;SDS011;57146;48.140;16.304;2023-05-10T05:58:55;6.85;;;0.90;;
69854;SDS011;57146;48.140;16.304;2023-05-10T06:01:21;3.97;;;1.02;;
69854;SDS011;57146;48.140;16.304;2023-05-10T06:03:48;3.90;;;0.80;;
69854;SDS011;57146;48.140;16.304;2023-05-10T06:06:18;4.03;;;0.90;;
69854;SDS011;57146;48.140;16.304;2023-05-10T06:08:45;4.88;;;0.80;;
69854;SDS011;57146;48.140;16.304;2023-05-10T06:11:12;6.32;;;0.95;;
69854;SDS011;57146;48.140;16.304;2023-05-10T06:13:38;5.78;;;0.98;;
69854;SDS011;57146;48.140;16.304;2023-05-10T06:16:07;17.02;;;1.52;;
69854;SDS011;57146;48.140;16.304;2023-05-10T06:18:34;4.97;;;0.77;;
69854;SDS011;57146;48.140;16.304;2023-05-10T06:21:01;5.28;;;0.65;;
69854;SDS011;57146;48.140;16.304;2023-05-10T06:23:28;6.13;;;1.00;;
69854;SDS011;57146;48.140;16.304;2023-05-10T06:25:55;3.50;;;0.60;;
69854;SDS011;57146;48.140;16.304;2023-05-10T06:28:22;7.40;;;0.85;;
69854;SDS011;57146;48.140;16.304;2023-05-10T06:30:49;3.87;;;0.90;;
69854;SDS011;57146;48.140;16.304;2023-05-10T06:33:16;6.18;;;0.98;;
69854;SDS011;57146;48.140;16.304;2023-05-10T06:35:43;4.72;;;0.70;;
69854;SDS011;57146;48.140;16.304;2023-05-10T06:38:09;6.25;;;0.50;;
69854;SDS011;57146;48.140;16.304;2023-05-10T06:40:40;6.13;;;0.98;;
69854;SDS011;57146;48.140;16.304;2023-05-10T06:43:08;3.50;;;0.70;;
69854;SDS011;57146;48.140;16.304;2023-05-10T06:45:35;4.45;;;0.70;;
69854;SDS011;57146;48.140;16.304;2023-05-10T06:48:02;4.40;;;0.80;;
69854;SDS011;57146;48.140;16.304;2023-05-10T06:50:29;3.33;;;0.55;;
69854;SDS011;57146;48.140;16.304;2023-05-10T06:52:56;5.50;;;0.98;;
69854;SDS011;57146;48.140;16.304;2023-05-10T06:55:22;10.00;;;1.30;;
69854;SDS011;57146;48.140;16.304;2023-05-10T06:57:49;5.20;;;0.90;;
69854;SDS011;57146;48.140;16.304;2023-05-10T07:00:16;5.93;;;1.10;;
69854;SDS011;57146;48.140;16.304;2023-05-10T07:02:45;7.85;;;1.30;;
69854;SDS011;57146;48.140;16.304;2023-05-10T07:05:12;11.95;;;1.65;;
69854;SDS011;57146;48.140;16.304;2023-05-10T07:07:39;6.23;;;1.00;;
69854;SDS011;57146;48.140;16.304;2023-05-10T07:10:06;4.68;;;0.77;;
69854;SDS011;57146;48.140;16.304;2023-05-10T07:12:33;4.32;;;1.30;;
69854;SDS011;57146;48.140;16.304;2023-05-10T07:15:01;8.85;;;1.00;;
69854;SDS011;57146;48.140;16.304;2023-05-10T07:17:28;6.20;;;1.10;;
69854;SDS011;57146;48.140;16.304;2023-05-10T07:19:55;3.50;;;0.77;;
69854;SDS011;57146;48.140;16.304;2023-05-10T07:22:21;22.13;;;2.40;;
69854;SDS011;57146;48.140;16.304;2023-05-10T07:24:49;14.93;;;1.73;;
69854;SDS011;57146;48.140;16.304;2023-05-10T07:27:16;5.75;;;0.50;;
69854;SDS011;57146;48.140;16.304;2023-05-10T07:29:43;4.60;;;0.70;;
69854;SDS011;57146;48.140;16.304;2023-05-10T07:32:10;3.43;;;0.60;;
69854;SDS011;57146;48.140;16.304;2023-05-10T07:34:37;3.92;;;0.50;;
69854;SDS011;57146;48.140;16.304;2023-05-10T07:37:04;6.28;;;0.98;;
69854;SDS011;57146;48.140;16.304;2023-05-10T07:39:30;5.30;;;0.70;;
69854;SDS011;57146;48.140;16.304;2023-05-10T07:41:57;10.50;;;1.10;;
69854;SDS011;57146;48.140;16.304;2023-05-10T07:44:24;5.63;;;1.00;;
69854;SDS011;57146;48.140;16.304;2023-05-10T07:46:51;4.47;;;0.90;;
69854;SDS011;57146;48.140;16.304;2023-05-10T07:49:18;4.30;;;0.80;;
69854;SDS011;57146;48.140;16.304;2023-05-10T07:51:45;4.13;;;0.80;;
69854;SDS011;57146;48.140;16.304;2023-05-10T07:54:13;5.07;;;0.77;;
69854;SDS011;57146;48.140;16.304;2023-05-10T07:56:40;5.50;;;0.80;;
69854;SDS011;57146;48.140;16.304;2023-05-10T07:59:07;4.05;;;0.90;;
69854;SDS011;57146;48.140;16.304;2023-05-10T08:01:37;5.18;;;0.77;;
69854;SDS011;57146;48.140;16.304;2023-05-10T08:04:04;4.65;;;0.95;;
69854;SDS011;57146;48.140;16.304;2023-05-10T08:06:31;4.25;;;1.30;;
69854;SDS011;57146;48.140;16.304;2023-05-10T08:08:58;6.50;;;1.00;;
69854;SDS011;57146;48.140;16.304;2023-05-10T08:11:24;6.28;;;0.82;;
69854;SDS011;57146;48.140;16.304;2023-05-10T08:13:51;5.80;;;1.00;;
69854;SDS011;57146;48.140;16.304;2023-05-10T08:16:19;4.40;;;1.35;;
69854;SDS011;57146;48.140;16.304;2023-05-10T08:18:47;4.85;;;1.08;;
69854;SDS011;57146;48.140;16.304;2023-05-10T08:21:14;6.77;;;1.27;;
69854;SDS011;57146;48.140;16.304;2023-05-10T08:23:41;5.97;;;1.10;;
69854;SDS011;57146;48.140;16.304;2023-05-10T08:26:08;5.47;;;1.30;;
69854;SDS011;57146;48.140;16.304;2023-05-10T08:28:35;4.88;;;1.00;;
69854;SDS011;57146;48.140;16.304;2023-05-10T08:31:02;4.07;;;1.20;;
69854;SDS011;57146;48.140;16.304;2023-05-10T08:33:29;7.13;;;1.30;;
69854;SDS011;57146;48.140;16.304;2023-05-10T08:35:56;3.53;;;0.90;;
69854;SDS011;57146;48.140;16.304;2023-05-10T08:38:23;5.15;;;1.05;;
69854;SDS011;57146;48.140;16.304;2023-05-10T08:40:50;13.80;;;1.08;;
69854;SDS011;57146;48.140;16.304;2023-05-10T08:43:21;8.65;;;0.65;;
69854;SDS011;57146;48.140;16.304;2023-05-10T08:45:50;5.50;;;0.77;;
69854;SDS011;57146;48.140;16.304;2023-05-10T08:48:19;5.68;;;0.50;;
69854;SDS011;57146;48.140;16.304;2023-05-10T08:50:53;8.80;;;1.40;;
69854;SDS011;57146;48.140;16.304;2023-05-10T08:53:20;9.82;;;1.27;;
69854;SDS011;57146;48.140;16.304;2023-05-10T08:55:50;6.95;;;0.70;;
69854;SDS011;57146;48.140;16.304;2023-05-10T08:58:18;3.90;;;0.70;;
69854;SDS011;57146;48.140;16.304;2023-05-10T09:00:46;5.63;;;0.85;;
69854;SDS011;57146;48.140;16.304;2023-05-10T09:03:15;3.08;;;0.90;;
69854;SDS011;57146;48.140;16.304;2023-05-10T09:05:42;4.07;;;0.65;;
69854;SDS011;57146;48.140;16.304;2023-05-10T09:08:09;5.88;;;1.00;;
69854;SDS011;57146;48.140;16.304;2023-05-10T09:10:38;3.87;;;0.73;;
69854;SDS011;57146;48.140;16.304;2023-05-10T09:13:06;3.40;;;0.70;;
69854;SDS011;57146;48.140;16.304;2023-05-10T09:15:35;3.30;;;0.40;;
69854;SDS011;57146;48.140;16.304;2023-05-10T09:18:02;4.65;;;0.55;;
69854;SDS011;57146;48.140;16.304;2023-05-10T09:20:29;10.40;;;0.80;;
69854;SDS011;57146;48.140;16.304;2023-05-10T09:22:56;8.07;;;0.73;;
69854;SDS011;57146;48.140;16.304;2023-05-10T09:25:23;6.25;;;0.65;;
69854;SDS011;57146;48.140;16.304;2023-05-10T09:27:50;5.95;;;0.55;;
69854;SDS011;57146;48.140;16.304;2023-05-10T09:30:18;4.22;;;0.60;;
69854;SDS011;57146;48.140;16.304;2023-05-10T09:32:51;2.78;;;0.30;;
69854;SDS011;57146;48.140;16.304;2023-05-10T09:35:20;4.93;;;0.30;;
69854;SDS011;57146;48.140;16.304;2023-05-10T09:37:49;6.18;;;0.50;;
69854;SDS011;57146;48.140;16.304;2023-05-10T09:40:18;4.45;;;0.45;;
69854;SDS011;57146;48.140;16.304;2023-05-10T09:45:29;2.10;;;0.10;;
69854;SDS011;57146;48.140;16.304;2023-05-10T09:47:58;4.30;;;0.20;;
69854;SDS011;57146;48.140;16.304;2023-05-10T09:50:26;10.25;;;0.40;;
69854;SDS011;57146;48.140;16.304;2023-05-10T09:52:55;12.57;;;0.50;;
69854;SDS011;57146;48.140;16.304;2023-05-10T09:55:24;7.70;;;0.38;;
69854;SDS011;57146;48.140;16.304;2023-05-10T09:58:00;2.03;;;0.30;;
69854;SDS011;57146;48.140;16.304;2023-05-10T10:00:27;2.37;;;0.20;;
69854;SDS011;57146;48.140;16.304;2023-05-10T10:02:58;3.05;;;0.10;;
69854;SDS011;57146;48.140;16.304;2023-05-10T10:05:32;2.10;;;0.15;;
69854;SDS011;57146;48.140;16.304;2023-05-10T10:08:04;2.20;;;0.13;;
69854;SDS011;57146;48.140;16.304;2023-05-10T10:10:32;1.77;;;0.10;;
69854;SDS011;57146;48.140;16.304;2023-05-10T10:12:59;6.03;;;0.20;;
69854;SDS011;57146;48.140;16.304;2023-05-10T10:15:28;5.75;;;0.10;;
69854;SDS011;57146;48.140;16.304;2023-05-10T10:17:55;4.13;;;0.30;;
69854;SDS011;57146;48.140;16.304;2023-05-10T10:20:22;4.85;;;0.30;;
69854;SDS011;57146;48.140;16.304;2023-05-10T10:22:49;2.03;;;0.10;;
69854;SDS011;57146;48.140;16.304;2023-05-10T10:25:16;14.10;;;0.67;;
69854;SDS011;57146;48.140;16.304;2023-05-10T10:30:24;3.33;;;0.10;;
69854;SDS011;57146;48.140;16.304;2023-05-10T10:35:57;1.60;;;0.00;;
69854;SDS011;57146;48.140;16.304;2023-05-10T10:38:35;3.93;;;0.10;;
69854;SDS011;57146;48.140;16.304;2023-05-10T10:41:27;1.83;;;0.00;;
69854;SDS011;57146;48.140;16.304;2023-05-10T10:57:27;9.38;;;0.40;;
69854;SDS011;57146;48.140;16.304;2023-05-10T11:05:42;6.37;;;0.30;;
69854;SDS011;57146;48.140;16.304;2023-05-10T11:08:16;4.78;;;0.30;;
69854;SDS011;57146;48.140;16.304;2023-05-10T11:10:54;6.10;;;0.40;;
69854;SDS011;57146;48.140;16.304;2023-05-10T11:13:51;4.15;;;0.17;;
69854;SDS011;57146;48.140;16.304;2023-05-10T11:16:21;3.53;;;0.22;;
69854;SDS011;57146;48.140;16.304;2023-05-10T11:21:29;3.55;;;0.30;;
69854;SDS011;57146;48.140;16.304;2023-05-10T11:23:58;1.85;;;0.10;;
69854;SDS011;57146;48.140;16.304;2023-05-10T11:26:33;4.53;;;0.20;;
69854;SDS011;57146;48.140;16.304;2023-05-10T11:29:01;1.80;;;0.10;;
69854;SDS011;57146;48.140;16.304;2023-05-10T11:31:28;3.50;;;0.27;;
69854;SDS011;57146;48.140;16.304;2023-05-10T11:33:57;3.08;;;0.20;;
69854;SDS011;57146;48.140;16.304;2023-05-10T11:36:27;1.45;;;0.05;;
69854;SDS011;57146;48.140;16.304;2023-05-10T11:38:55;2.63;;;0.10;;
69854;SDS011;57146;48.140;16.304;2023-05-10T11:41:23;4.32;;;0.20;;
69854;SDS011;57146;48.140;16.304;2023-05-10T11:43:51;1.87;;;0.10;;
69854;SDS011;57146;48.140;16.304;2023-05-10T11:46:20;9.00;;;0.38;;
69854;SDS011;57146;48.140;16.304;2023-05-10T11:48:57;2.40;;;0.10;;
69854;SDS011;57146;48.140;16.304;2023-05-10T11:51:26;2.72;;;0.13;;
69854;SDS011;57146;48.140;16.304;2023-05-10T11:53:54;1.40;;;0.00;;
69854;SDS011;57146;48.140;16.304;2023-05-10T11:56:22;5.03;;;0.10;;
69854;SDS011;57146;48.140;16.304;2023-05-10T11:58:53;6.82;;;0.20;;
69854;SDS011;57146;48.140;16.304;2023-05-10T12:01:23;4.00;;;0.30;;
69854;SDS011;57146;48.140;16.304;2023-05-10T12:03:51;3.55;;;0.20;;
69854;SDS011;57146;48.140;16.304;2023-05-10T12:06:20;3.47;;;0.10;;
69854;SDS011;57146;48.140;16.304;2023-05-10T12:08:48;4.27;;;0.27;;
69854;SDS011;57146;48.140;16.304;2023-05-10T12:11:16;2.33;;;0.10;;
69854;SDS011;57146;48.140;16.304;2023-05-10T12:13:43;8.52;;;0.50;;
69854;SDS011;57146;48.140;16.304;2023-05-10T12:16:18;3.78;;;0.17;;
69854;SDS011;57146;48.140;16.304;2023-05-10T12:18:50;6.22;;;0.20;;
69854;SDS011;57146;48.140;16.304;2023-05-10T12:21:18;3.33;;;0.40;;
69854;SDS011;57146;48.140;16.304;2023-05-10T12:23:48;2.38;;;0.00;;
69854;SDS011;57146;48.140;16.304;2023-05-10T12:26:16;6.68;;;0.32;;
69854;SDS011;57146;48.140;16.304;2023-05-10T12:28:43;4.82;;;0.10;;
69854;SDS011;57146;48.140;16.304;2023-05-10T12:31:10;4.93;;;0.17;;
69854;SDS011;57146;48.140;16.304;2023-05-10T12:36:14;4.07;;;0.10;;
69854;SDS011;57146;48.140;16.304;2023-05-10T12:38:42;5.32;;;0.13;;
69854;SDS011;57146;48.140;16.304;2023-05-10T12:41:11;5.72;;;0.10;;
69854;SDS011;57146;48.140;16.304;2023-05-10T12:43:39;4.70;;;0.10;;
69854;SDS011;57146;48.140;16.304;2023-05-10T12:46:13;2.43;;;0.10;;
69854;SDS011;57146;48.140;16.304;2023-05-10T12:48:42;9.30;;;0.57;;
69854;SDS011;57146;48.140;16.304;2023-05-10T12:51:10;12.82;;;0.43;;
69854;SDS011;57146;48.140;16.304;2023-05-10T12:53:37;12.93;;;0.73;;
69854;SDS011;57146;48.140;16.304;2023-05-10T12:56:07;13.57;;;0.77;;
69854;SDS011;57146;48.140;16.304;2023-05-10T12:58:34;9.27;;;0.20;;
69854;SDS011;57146;48.140;16.304;2023-05-10T13:01:01;2.58;;;0.43;;
69854;SDS011;57146;48.140;16.304;2023-05-10T13:03:29;2.05;;;0.20;;
69854;SDS011;57146;48.140;16.304;2023-05-10T13:05:56;3.10;;;0.30;;
69854;SDS011;57146;48.140;16.304;2023-05-10T13:08:23;5.30;;;0.32;;
69854;SDS011;57146;48.140;16.304;2023-05-10T13:10:49;5.97;;;0.20;;
69854;SDS011;57146;48.140;16.304;2023-05-10T13:13:16;6.20;;;0.20;;
69854;SDS011;57146;48.140;16.304;2023-05-10T13:15:43;5.90;;;0.17;;
69854;SDS011;57146;48.140;16.304;2023-05-10T13:18:09;4.53;;;0.22;;
69854;SDS011;57146;48.140;16.304;2023-05-10T13:20:37;4.93;;;0.30;;
69854;SDS011;57146;48.140;16.304;2023-05-10T13:23:04;5.30;;;0.27;;
69854;SDS011;57146;48.140;16.304;2023-05-10T13:25:31;11.55;;;0.77;;
69854;SDS011;57146;48.140;16.304;2023-05-10T13:27:58;5.80;;;0.38;;
69854;SDS011;57146;48.140;16.304;2023-05-10T13:30:25;7.13;;;0.52;;
69854;SDS011;57146;48.140;16.304;2023-05-10T13:32:51;8.38;;;0.60;;
69854;SDS011;57146;48.140;16.304;2023-05-10T13:35:18;2.23;;;0.20;;
69854;SDS011;57146;48.140;16.304;2023-05-10T13:37:45;3.55;;;0.28;;
69854;SDS011;57146;48.140;16.304;2023-05-10T13:40:12;2.90;;;0.38;;
69854;SDS011;57146;48.140;16.304;2023-05-10T13:42:38;5.20;;;0.17;;
69854;SDS011;57146;48.140;16.304;2023-05-10T13:45:05;1.70;;;0.22;;
69854;SDS011;57146;48.140;16.304;2023-05-10T13:47:33;1.50;;;0.20;;
69854;SDS011;57146;48.140;16.304;2023-05-10T13:50:00;8.45;;;0.52;;
69854;SDS011;57146;48.140;16.304;2023-05-10T13:52:27;2.67;;;0.28;;
69854;SDS011;57146;48.140;16.304;2023-05-10T13:54:54;3.25;;;0.30;;
69854;SDS011;57146;48.140;16.304;2023-05-10T13:57:21;4.50;;;0.30;;
69854;SDS011;57146;48.140;16.304;2023-05-10T13:59:48;2.50;;;0.13;;
69854;SDS011;57146;48.140;16.304;2023-05-10T14:02:14;5.55;;;0.20;;
69854;SDS011;57146;48.140;16.304;2023-05-10T14:04:41;2.15;;;0.30;;
69854;SDS011;57146;48.140;16.304;2023-05-10T14:07:08;2.55;;;0.30;;
69854;SDS011;57146;48.140;16.304;2023-05-10T14:09:35;2.38;;;0.20;;
69854;SDS011;57146;48.140;16.304;2023-05-10T14:12:02;25.20;;;1.73;;
69854;SDS011;57146;48.140;16.304;2023-05-10T14:14:29;3.47;;;0.30;;
69854;SDS011;57146;48.140;16.304;2023-05-10T14:16:56;2.30;;;0.20;;
69854;SDS011;57146;48.140;16.304;2023-05-10T14:19:23;4.50;;;0.30;;
69854;SDS011;57146;48.140;16.304;2023-05-10T14:21:49;5.63;;;0.35;;
69854;SDS011;57146;48.140;16.304;2023-05-10T14:24:16;3.53;;;0.30;;
69854;SDS011;57146;48.140;16.304;2023-05-10T14:26:43;1.70;;;0.20;;
69854;SDS011;57146;48.140;16.304;2023-05-10T14:29:11;1.60;;;0.20;;
69854;SDS011;57146;48.140;16.304;2023-05-10T14:31:39;2.22;;;0.30;;
69854;SDS011;57146;48.140;16.304;2023-05-10T14:34:06;5.25;;;0.50;;
69854;SDS011;57146;48.140;16.304;2023-05-10T14:36:33;2.20;;;0.20;;
69854;SDS011;57146;48.140;16.304;2023-05-10T14:39:00;1.48;;;0.10;;
69854;SDS011;57146;48.140;16.304;2023-05-10T14:41:28;4.45;;;0.55;;
69854;SDS011;57146;48.140;16.304;2023-05-10T14:43:55;1.90;;;0.15;;
69854;SDS011;57146;48.140;16.304;2023-05-10T14:46:22;3.90;;;0.30;;
69854;SDS011;57146;48.140;16.304;2023-05-10T14:48:48;1.70;;;0.20;;
69854;SDS011;57146;48.140;16.304;2023-05-10T14:51:15;5.88;;;0.30;;
69854;SDS011;57146;48.140;16.304;2023-05-10T14:53:42;2.92;;;0.30;;
69854;SDS011;57146;48.140;16.304;2023-05-10T14:56:09;6.85;;;0.50;;
69854;SDS011;57146;48.140;16.304;2023-05-10T14:58:36;2.25;;;0.20;;
69854;SDS011;57146;48.140;16.304;2023-05-10T15:01:03;2.13;;;0.10;;
69854;SDS011;57146;48.140;16.304;2023-05-10T15:03:30;1.75;;;0.10;;
69854;SDS011;57146;48.140;16.304;2023-05-10T15:05:58;3.22;;;0.20;;
69854;SDS011;57146;48.140;16.304;2023-05-10T15:08:25;2.90;;;0.13;;
69854;SDS011;57146;48.140;16.304;2023-05-10T15:10:52;3.45;;;0.25;;
69854;SDS011;57146;48.140;16.304;2023-05-10T15:13:18;5.80;;;0.60;;
69854;SDS011;57146;48.140;16.304;2023-05-10T15:15:45;3.70;;;0.20;;
69854;SDS011;57146;48.140;16.304;2023-05-10T15:18:12;2.88;;;0.10;;
69854;SDS011;57146;48.140;16.304;2023-05-10T15:20:39;3.65;;;0.15;;
69854;SDS011;57146;48.140;16.304;2023-05-10T15:23:07;1.80;;;0.10;;